createdAt,value
2023-01-25T00:00:25.790Z,0.70
2023-01-25T00:05:27.574Z,0.70
2023-01-25T00:10:29.338Z,0.70
2023-01-25T00:15:31.274Z,0.70
2023-01-25T00:20:33.128Z,0.80
2023-01-25T00:25:34.894Z,0.80
2023-01-25T00:30:36.780Z,0.80
2023-01-25T00:35:39.103Z,0.80
2023-01-25T00:40:40.949Z,0.80
2023-01-25T00:45:42.807Z,0.80
2023-01-25T00:50:44.644Z,0.80
2023-01-25T00:55:55.571Z,0.80
2023-01-25T01:01:01.765Z,0.90
2023-01-25T01:06:09.578Z,0.90
2023-01-25T01:11:12.950Z,0.80
2023-01-25T01:16:14.760Z,0.90
2023-01-25T01:21:17.196Z,0.90
2023-01-25T01:26:22.055Z,0.90
2023-01-25T01:31:24.992Z,0.90
2023-01-25T01:36:28.854Z,0.90
2023-01-25T01:41:30.557Z,1.00
2023-01-25T01:46:34.430Z,0.90
2023-01-25T01:51:50.500Z,0.90
2023-01-25T01:56:55.491Z,0.90
2023-01-25T02:01:57.391Z,0.90
2023-01-25T02:07:16.831Z,1.00
2023-01-25T02:12:21.439Z,0.90
2023-01-25T02:17:35.136Z,0.90
2023-01-25T02:22:44.468Z,0.90
2023-01-25T02:27:54.745Z,0.90
2023-01-25T02:32:56.779Z,0.90
2023-01-25T02:38:03.567Z,1.00
2023-01-25T02:43:05.484Z,1.00
2023-01-25T02:48:07.532Z,1.00
2023-01-25T02:53:09.276Z,1.00
2023-01-25T02:58:11.223Z,1.00
2023-01-25T03:03:13.000Z,1.00
2023-01-25T03:08:14.751Z,1.10
2023-01-25T03:13:16.522Z,1.10
2023-01-25T03:18:18.696Z,1.10
2023-01-25T03:23:20.476Z,1.10
2023-01-25T03:28:22.160Z,1.10
2023-01-25T03:33:25.325Z,1.20
2023-01-25T03:38:27.465Z,1.20
2023-01-25T03:43:29.717Z,1.20
2023-01-25T03:48:31.674Z,1.20
2023-01-25T03:53:33.880Z,1.20
2023-01-25T03:58:37.045Z,1.20
2023-01-25T04:03:38.933Z,1.20
2023-01-25T04:08:40.657Z,1.20
2023-01-25T04:13:42.377Z,1.20
2023-01-25T04:18:44.176Z,1.20
2023-01-25T04:23:45.911Z,1.20
2023-01-25T04:28:47.675Z,1.20
2023-01-25T04:33:50.641Z,1.30
2023-01-25T04:38:53.090Z,1.20
2023-01-25T04:43:55.063Z,1.20
2023-01-25T04:48:56.776Z,1.30
2023-01-25T04:53:59.402Z,1.30
2023-01-25T04:59:01.275Z,1.30
2023-01-25T05:04:03.257Z,1.30
2023-01-25T05:09:05.031Z,1.30
2023-01-25T05:14:06.772Z,1.30
2023-01-25T05:19:10.047Z,1.30
2023-01-25T05:24:11.864Z,1.30
2023-01-25T05:29:13.731Z,1.30
2023-01-25T05:34:15.631Z,1.30
2023-01-25T05:39:17.729Z,1.30
2023-01-25T05:44:19.508Z,1.40
2023-01-25T05:49:21.439Z,1.40
2023-01-25T05:54:23.671Z,1.40
2023-01-25T05:59:25.576Z,1.40
2023-01-25T06:04:27.289Z,1.40
2023-01-25T06:09:29.000Z,1.40
2023-01-25T06:14:30.709Z,1.40
2023-01-25T06:19:32.534Z,1.40
2023-01-25T06:24:34.258Z,1.40
2023-01-25T06:29:36.000Z,1.40
2023-01-25T06:34:37.811Z,1.20
2023-01-25T06:39:40.746Z,1.20
2023-01-25T06:44:42.508Z,1.30
2023-01-25T06:49:44.277Z,1.30
2023-01-25T06:54:46.002Z,1.40
2023-01-25T06:59:47.832Z,1.40
2023-01-25T07:04:49.509Z,1.50
2023-01-25T07:09:51.231Z,1.50
2023-01-25T07:14:52.966Z,1.50
2023-01-25T07:19:54.808Z,1.40
2023-01-25T07:24:57.893Z,1.50
2023-01-25T07:29:59.616Z,1.60
2023-01-25T07:35:01.617Z,1.60
2023-01-25T07:40:03.614Z,1.60
2023-01-25T07:45:05.811Z,1.50
2023-01-25T07:50:08.016Z,1.60
2023-01-25T07:55:10.327Z,1.60
2023-01-25T08:00:13.656Z,1.60
2023-01-25T08:05:15.412Z,1.60
2023-01-25T08:10:17.609Z,1.60
2023-01-25T08:15:19.379Z,1.60
2023-01-25T08:20:22.649Z,1.70
2023-01-25T08:25:24.408Z,1.70
2023-01-25T08:30:26.173Z,1.70
2023-01-25T08:35:27.899Z,1.70
2023-01-25T08:40:30.024Z,1.70
2023-01-25T08:45:34.467Z,1.60
2023-01-25T08:50:36.243Z,1.70
2023-01-25T08:55:38.666Z,1.70
2023-01-25T09:00:41.434Z,1.80
2023-01-25T09:05:43.228Z,1.80
2023-01-25T09:10:45.119Z,1.90
2023-01-25T09:15:46.924Z,1.80
2023-01-25T09:20:49.197Z,1.90
2023-01-25T09:25:58.667Z,1.90
2023-01-25T09:31:20.546Z,1.90
2023-01-25T09:36:23.943Z,1.90
2023-01-25T09:41:47.430Z,2.00
2023-01-25T09:46:52.883Z,2.10
2023-01-25T09:52:09.638Z,2.00
2023-01-25T09:57:36.885Z,2.10
2023-01-25T10:02:50.200Z,2.10
2023-01-25T10:08:05.721Z,2.10
2023-01-25T10:13:17.539Z,2.10
2023-01-25T10:18:27.652Z,2.10
2023-01-25T10:23:41.512Z,2.00
2023-01-25T10:29:21.598Z,2.20
2023-01-25T10:34:29.804Z,2.20
2023-01-25T10:39:38.985Z,2.20
2023-01-25T10:44:40.801Z,2.20
2023-01-25T10:49:52.190Z,2.30
2023-01-25T10:55:17.222Z,2.30
2023-01-25T11:00:38.490Z,2.30
2023-01-25T11:05:41.823Z,2.40
2023-01-25T11:10:46.013Z,2.50
2023-01-25T11:15:53.644Z,2.50
2023-01-25T11:21:12.539Z,2.40
2023-01-25T11:26:19.688Z,2.40
2023-01-25T11:31:22.497Z,2.40
2023-01-25T11:36:35.235Z,2.40
2023-01-25T11:41:49.404Z,2.40
2023-01-25T11:47:09.318Z,2.40
2023-01-25T11:52:17.345Z,2.40
2023-01-25T11:57:33.904Z,2.30
2023-01-25T12:02:56.358Z,2.30
2023-01-25T12:08:41.674Z,2.30
2023-01-25T12:14:00.621Z,2.30
2023-01-25T12:19:30.926Z,2.30
2023-01-25T12:24:37.550Z,2.40
2023-01-25T12:29:55.830Z,2.40
2023-01-25T12:35:29.606Z,2.50
2023-01-25T12:40:40.435Z,2.50
2023-01-25T12:45:46.106Z,2.50
2023-01-25T12:50:57.133Z,2.50
2023-01-25T12:55:59.879Z,2.50
2023-01-25T13:01:16.088Z,2.50
2023-01-25T13:06:25.347Z,2.50
2023-01-25T13:11:42.824Z,2.50
2023-01-25T13:17:01.341Z,2.50
2023-01-25T13:22:09.216Z,2.50
2023-01-25T13:27:28.159Z,2.50
2023-01-25T13:32:32.791Z,2.50
2023-01-25T13:37:36.025Z,2.50
2023-01-25T13:42:39.291Z,2.50
2023-01-25T13:47:44.038Z,2.50
2023-01-25T13:53:17.066Z,2.50
2023-01-25T13:58:27.789Z,2.50
2023-01-25T14:03:36.620Z,2.50
2023-01-25T14:08:38.532Z,2.50
2023-01-25T14:13:59.314Z,2.40
2023-01-25T14:19:24.901Z,2.40
2023-01-25T14:24:26.778Z,2.40
2023-01-25T14:29:33.120Z,2.40
2023-01-25T14:34:35.406Z,2.40
2023-01-25T14:39:37.638Z,2.40
2023-01-25T14:44:40.188Z,2.40
2023-01-25T14:49:41.893Z,2.40
2023-01-25T14:55:07.752Z,2.30
2023-01-25T15:00:20.649Z,2.30
2023-01-25T15:05:27.338Z,2.40
2023-01-25T15:10:31.562Z,2.40
2023-01-25T15:15:35.490Z,2.30
2023-01-25T15:20:40.159Z,2.40
2023-01-25T15:25:59.044Z,2.40
2023-01-25T15:31:01.249Z,2.40
2023-01-25T15:36:03.311Z,2.30
2023-01-25T15:41:05.455Z,2.30
2023-01-25T15:46:28.405Z,2.30
2023-01-25T15:51:34.614Z,2.30
2023-01-25T15:56:39.589Z,2.40
2023-01-25T16:01:41.839Z,2.40
2023-01-25T16:06:54.224Z,2.40
2023-01-25T16:11:58.401Z,2.40
2023-01-25T16:17:04.290Z,2.40
2023-01-25T16:22:06.285Z,2.40
2023-01-25T16:27:15.529Z,2.40
2023-01-25T16:32:17.312Z,2.40
2023-01-25T16:37:19.215Z,2.40
2023-01-25T16:42:22.684Z,2.40
2023-01-25T16:47:25.461Z,2.40
2023-01-25T16:52:27.913Z,2.40
2023-01-25T16:57:29.678Z,2.40
2023-01-25T17:02:31.606Z,2.40
2023-01-25T17:07:33.529Z,2.40
2023-01-25T17:12:35.343Z,2.40
2023-01-25T17:17:37.277Z,2.40
2023-01-25T17:22:39.100Z,2.40
2023-01-25T17:27:41.048Z,2.40
2023-01-25T17:32:42.860Z,2.40
2023-01-25T17:37:44.640Z,2.40
2023-01-25T17:42:46.392Z,2.30
2023-01-25T17:47:48.077Z,2.40
2023-01-25T17:52:49.971Z,2.40
2023-01-25T17:57:51.674Z,2.40
2023-01-25T18:02:54.741Z,2.40
2023-01-25T18:07:56.681Z,2.30
2023-01-25T18:13:04.450Z,2.30
2023-01-25T18:18:07.310Z,2.30
2023-01-25T18:23:09.311Z,2.30
2023-01-25T18:28:13.800Z,2.30
2023-01-25T18:33:15.501Z,2.30
2023-01-25T18:38:17.761Z,2.30
2023-01-25T18:43:20.167Z,2.30
2023-01-25T18:48:30.202Z,2.30
2023-01-25T18:53:33.830Z,2.30
2023-01-25T18:58:37.191Z,2.30
2023-01-25T19:03:39.020Z,2.30
2023-01-25T19:08:46.504Z,2.30
2023-01-25T19:13:48.612Z,2.20
2023-01-25T19:18:53.091Z,2.20
2023-01-25T19:23:56.097Z,2.10
2023-01-25T19:28:57.920Z,2.10
2023-01-25T19:34:02.410Z,2.00
2023-01-25T19:39:05.867Z,2.00
2023-01-25T19:44:10.308Z,2.00
2023-01-25T19:49:13.352Z,1.90
2023-01-25T19:54:17.154Z,1.90
2023-01-25T19:59:25.422Z,1.90
2023-01-25T20:04:27.258Z,1.90
2023-01-25T20:09:28.987Z,1.80
2023-01-25T20:14:30.689Z,1.80
2023-01-25T20:19:35.156Z,1.80
2023-01-25T20:24:36.929Z,1.80
2023-01-25T20:29:39.848Z,1.70
2023-01-25T20:34:42.726Z,1.70
2023-01-25T20:39:44.521Z,1.60
2023-01-25T20:44:46.243Z,1.70
2023-01-25T20:49:47.971Z,1.70
2023-01-25T20:54:49.847Z,1.70
2023-01-25T20:59:51.576Z,1.60
2023-01-25T21:04:53.335Z,1.70
2023-01-25T21:09:55.071Z,1.60
2023-01-25T21:14:56.814Z,1.60
2023-01-25T21:19:58.766Z,1.60
2023-01-25T21:25:00.457Z,1.60
2023-01-25T21:30:02.926Z,1.60
2023-01-25T21:35:05.044Z,1.60
2023-01-25T21:40:07.521Z,1.60
2023-01-25T21:45:29.156Z,1.60
2023-01-25T21:50:49.699Z,1.60
2023-01-25T21:55:57.513Z,1.60
2023-01-25T22:01:02.128Z,1.60
2023-01-25T22:06:04.053Z,1.60
2023-01-25T22:11:10.831Z,1.60
2023-01-25T22:16:13.360Z,1.60
2023-01-25T22:21:20.824Z,1.60
2023-01-25T22:26:24.849Z,1.60
2023-01-25T22:31:29.098Z,1.60
2023-01-25T22:36:31.420Z,1.50
2023-01-25T22:41:36.888Z,1.50
2023-01-25T22:46:38.649Z,1.50
2023-01-25T22:51:40.425Z,1.50
2023-01-25T22:56:42.253Z,1.50
2023-01-25T23:01:44.015Z,1.40
2023-01-25T23:06:45.882Z,1.40
2023-01-25T23:11:47.674Z,1.40
2023-01-25T23:16:49.566Z,1.40
2023-01-25T23:21:51.467Z,1.40
2023-01-25T23:26:53.302Z,1.50
2023-01-25T23:31:55.055Z,1.50
2023-01-25T23:36:56.808Z,1.40
2023-01-25T23:41:58.693Z,1.40
2023-01-25T23:47:01.632Z,1.50
2023-01-25T23:52:03.759Z,1.50
2023-01-25T23:57:05.470Z,1.50
